createdAt,value
2019-05-26T00:01:46.533Z,10.80
2019-05-26T00:04:13.639Z,10.80
2019-05-26T00:06:40.618Z,10.80
2019-05-26T00:09:07.931Z,10.80
2019-05-26T00:11:34.911Z,10.70
2019-05-26T00:14:01.897Z,10.80
2019-05-26T00:16:28.898Z,10.70
2019-05-26T00:18:56.148Z,10.80
2019-05-26T00:21:23.110Z,10.60
2019-05-26T00:23:50.118Z,10.80
2019-05-26T00:26:17.219Z,10.60
2019-05-26T00:28:45.511Z,10.70
2019-05-26T00:31:12.601Z,10.70
2019-05-26T00:33:40.962Z,10.70
2019-05-26T00:36:08.068Z,10.70
2019-05-26T00:38:35.051Z,10.70
2019-05-26T00:41:02.242Z,10.70
2019-05-26T00:43:29.530Z,10.70
2019-05-26T00:45:56.598Z,10.70
2019-05-26T00:48:23.566Z,10.70
2019-05-26T00:50:50.540Z,10.80
2019-05-26T00:53:18.016Z,10.70
2019-05-26T00:55:45.307Z,10.80
2019-05-26T00:58:12.399Z,10.80
2019-05-26T01:00:40.821Z,10.70
2019-05-26T01:03:08.685Z,10.80
2019-05-26T01:05:35.969Z,10.80
2019-05-26T01:08:06.571Z,10.90
2019-05-26T01:10:33.302Z,10.80
2019-05-26T01:13:00.386Z,10.70
2019-05-26T01:15:27.654Z,10.60
2019-05-26T01:17:54.630Z,10.70
2019-05-26T01:20:22.006Z,10.80
2019-05-26T01:22:49.050Z,10.80
2019-05-26T01:25:16.132Z,10.80
2019-05-26T01:27:43.759Z,10.70
2019-05-26T01:30:11.031Z,10.70
2019-05-26T01:32:38.086Z,10.70
2019-05-26T01:35:05.999Z,10.70
2019-05-26T01:37:33.400Z,10.80
2019-05-26T01:40:00.478Z,10.80
2019-05-26T01:42:27.442Z,10.80
2019-05-26T01:44:54.441Z,10.70
2019-05-26T01:47:21.407Z,10.80
2019-05-26T01:49:48.565Z,10.80
2019-05-26T01:52:15.568Z,10.80
2019-05-26T01:54:42.541Z,10.80
2019-05-26T01:57:09.512Z,10.80
2019-05-26T01:59:36.563Z,10.80
2019-05-26T02:02:04.063Z,10.80
2019-05-26T02:04:32.043Z,10.80
2019-05-26T02:06:59.090Z,10.90
2019-05-26T02:09:26.338Z,10.80
2019-05-26T02:11:53.895Z,10.90
2019-05-26T02:14:20.872Z,10.90
2019-05-26T02:16:48.195Z,10.90
2019-05-26T02:19:15.536Z,10.90
2019-05-26T02:21:42.755Z,10.90
2019-05-26T02:24:09.742Z,10.90
2019-05-26T02:26:36.788Z,10.90
2019-05-26T02:29:04.109Z,10.90
2019-05-26T02:31:31.367Z,10.90
2019-05-26T02:33:58.743Z,11.00
2019-05-26T02:36:25.789Z,11.00
2019-05-26T02:39:02.058Z,11.00
2019-05-26T02:41:21.779Z,11.00
2019-05-26T02:43:48.756Z,11.00
2019-05-26T02:46:15.859Z,11.00
2019-05-26T02:48:42.941Z,11.00
2019-05-26T02:51:10.122Z,11.10
2019-05-26T02:53:37.088Z,11.10
2019-05-26T02:56:04.470Z,11.10
2019-05-26T02:58:31.830Z,11.00
2019-05-26T03:00:59.605Z,11.10
2019-05-26T03:03:26.745Z,11.00
2019-05-26T03:05:54.612Z,10.90
2019-05-26T03:08:22.385Z,11.10
2019-05-26T03:10:50.823Z,11.10
2019-05-26T03:13:17.952Z,11.10
2019-05-26T03:15:46.308Z,11.10
2019-05-26T03:18:14.257Z,11.10
2019-05-26T03:20:41.522Z,11.00
2019-05-26T03:23:09.322Z,11.00
2019-05-26T03:25:36.942Z,11.00
2019-05-26T03:28:04.432Z,11.00
2019-05-26T03:30:31.662Z,11.10
2019-05-26T03:32:58.640Z,11.10
2019-05-26T03:35:25.605Z,11.10
2019-05-26T03:37:53.007Z,11.10
2019-05-26T03:40:20.193Z,11.20
2019-05-26T03:42:47.302Z,11.10
2019-05-26T03:45:23.058Z,11.20
2019-05-26T03:47:50.447Z,11.10
2019-05-26T03:50:17.527Z,11.10
2019-05-26T03:52:44.492Z,11.20
2019-05-26T03:55:11.565Z,11.20
2019-05-26T03:57:38.769Z,11.10
2019-05-26T04:00:06.267Z,11.10
2019-05-26T04:02:33.323Z,11.10
2019-05-26T04:05:00.311Z,11.10
2019-05-26T04:07:27.859Z,11.10
2019-05-26T04:10:04.807Z,11.10
2019-05-26T04:12:24.015Z,11.20
2019-05-26T04:14:51.432Z,11.20
2019-05-26T04:17:18.519Z,11.30
2019-05-26T04:19:45.687Z,11.30
2019-05-26T04:22:12.797Z,11.40
2019-05-26T04:24:41.530Z,11.40
2019-05-26T04:27:09.003Z,11.40
2019-05-26T04:29:36.107Z,11.50
2019-05-26T04:32:03.237Z,11.60
2019-05-26T04:34:30.217Z,11.60
2019-05-26T04:36:57.872Z,11.70
2019-05-26T04:39:24.925Z,11.80
2019-05-26T04:41:52.070Z,11.80
2019-05-26T04:44:19.396Z,11.90
2019-05-26T04:46:46.376Z,12.00
2019-05-26T04:49:13.335Z,12.10
2019-05-26T04:51:40.602Z,12.20
2019-05-26T04:54:07.802Z,12.20
2019-05-26T04:56:34.773Z,12.30
2019-05-26T04:59:01.881Z,12.20
2019-05-26T05:01:28.939Z,12.30
2019-05-26T05:03:55.957Z,12.30
2019-05-26T05:06:23.949Z,12.30
2019-05-26T05:08:51.281Z,12.40
2019-05-26T05:11:18.491Z,12.40
2019-05-26T05:13:45.859Z,12.40
2019-05-26T05:16:12.836Z,12.50
2019-05-26T05:18:40.102Z,12.50
2019-05-26T05:21:07.176Z,12.50
2019-05-26T05:23:34.415Z,12.50
2019-05-26T05:26:01.643Z,12.50
2019-05-26T05:28:28.750Z,12.50
2019-05-26T05:30:55.861Z,12.70
2019-05-26T05:33:23.510Z,12.60
2019-05-26T05:35:51.341Z,12.70
2019-05-26T05:38:18.624Z,12.60
2019-05-26T05:40:58.800Z,12.60
2019-05-26T05:43:14.950Z,12.60
2019-05-26T05:45:43.127Z,12.60
2019-05-26T05:48:10.615Z,12.50
2019-05-26T05:50:41.128Z,12.50
2019-05-26T05:53:08.353Z,12.60
2019-05-26T05:55:35.604Z,12.60
2019-05-26T05:58:02.701Z,12.60
2019-05-26T06:00:29.933Z,12.60
2019-05-26T06:02:57.839Z,12.70
2019-05-26T06:05:26.103Z,12.70
2019-05-26T06:07:54.334Z,12.60
2019-05-26T06:10:21.639Z,12.60
2019-05-26T06:12:49.423Z,12.70
2019-05-26T06:15:17.699Z,12.70
2019-05-26T06:17:45.533Z,12.80
2019-05-26T06:20:13.548Z,12.80
2019-05-26T06:22:40.536Z,13.00
2019-05-26T06:25:08.038Z,13.10
2019-05-26T06:27:36.455Z,13.30
2019-05-26T06:30:04.890Z,13.30
2019-05-26T06:32:32.326Z,13.20
2019-05-26T06:34:59.665Z,13.20
2019-05-26T06:37:26.646Z,13.30
2019-05-26T06:39:53.927Z,13.40
2019-05-26T06:42:21.336Z,13.40
2019-05-26T06:44:53.315Z,13.30
2019-05-26T06:47:18.074Z,13.30
2019-05-26T06:49:45.080Z,13.40
2019-05-26T06:52:12.156Z,13.50
2019-05-26T06:54:39.358Z,13.60
2019-05-26T06:57:06.720Z,13.60
2019-05-26T06:59:34.905Z,13.70
2019-05-26T07:02:02.372Z,13.70
2019-05-26T07:04:29.416Z,13.80
2019-05-26T07:06:57.007Z,13.90
2019-05-26T07:09:24.088Z,13.90
2019-05-26T07:11:59.058Z,13.90
2019-05-26T07:14:20.327Z,14.00
2019-05-26T07:16:47.877Z,14.10
2019-05-26T07:19:14.941Z,14.10
2019-05-26T07:21:42.900Z,14.20
2019-05-26T07:24:09.967Z,14.20
2019-05-26T07:26:37.490Z,14.30
2019-05-26T07:29:04.555Z,14.30
2019-05-26T07:31:32.238Z,14.40
2019-05-26T07:33:59.283Z,14.60
2019-05-26T07:36:26.528Z,14.50
2019-05-26T07:38:53.482Z,14.50
2019-05-26T07:41:20.826Z,14.40
2019-05-26T07:43:47.869Z,14.50
2019-05-26T07:46:15.211Z,14.60
2019-05-26T07:48:42.290Z,14.60
2019-05-26T07:51:09.548Z,14.60
2019-05-26T07:53:36.982Z,14.60
2019-05-26T07:56:04.090Z,14.70
2019-05-26T07:58:31.075Z,14.80
2019-05-26T08:00:58.445Z,14.90
2019-05-26T08:03:25.659Z,15.00
2019-05-26T08:05:52.647Z,15.10
2019-05-26T08:08:20.957Z,15.10
2019-05-26T08:10:50.255Z,15.30
2019-05-26T08:13:17.219Z,15.40
2019-05-26T08:15:45.443Z,15.40
2019-05-26T08:18:12.994Z,15.30
2019-05-26T08:20:42.786Z,15.30
2019-05-26T08:23:11.961Z,15.40
2019-05-26T08:25:39.622Z,15.40
2019-05-26T08:28:06.835Z,15.30
2019-05-26T08:30:33.785Z,15.50
2019-05-26T08:33:04.485Z,15.50
2019-05-26T08:35:31.804Z,15.60
2019-05-26T08:37:58.871Z,15.60
2019-05-26T08:40:26.282Z,15.60
2019-05-26T08:42:53.269Z,15.70
2019-05-26T08:45:22.092Z,15.70
2019-05-26T08:47:50.604Z,15.80
2019-05-26T08:50:17.928Z,16.00
2019-05-26T08:52:45.979Z,15.90
2019-05-26T08:55:13.158Z,15.90
2019-05-26T08:57:40.879Z,15.80
2019-05-26T09:00:08.494Z,15.70
2019-05-26T09:02:36.295Z,15.80
2019-05-26T09:05:04.843Z,15.80
2019-05-26T09:07:31.825Z,15.60
2019-05-26T09:09:59.146Z,15.70
2019-05-26T09:12:26.107Z,15.70
2019-05-26T09:14:53.105Z,15.70
2019-05-26T09:17:22.895Z,15.50
2019-05-26T09:19:50.082Z,15.50
2019-05-26T09:22:17.506Z,15.50
2019-05-26T09:24:45.261Z,15.50
2019-05-26T09:27:12.355Z,15.60
2019-05-26T09:29:40.612Z,15.70
2019-05-26T09:32:08.355Z,15.80
2019-05-26T09:34:36.230Z,15.90
2019-05-26T09:37:03.782Z,15.90
2019-05-26T09:39:31.387Z,15.70
2019-05-26T09:41:59.639Z,15.80
2019-05-26T09:44:27.159Z,15.80
2019-05-26T09:46:54.672Z,15.70
2019-05-26T09:49:22.372Z,15.70
2019-05-26T09:51:49.539Z,15.70
2019-05-26T09:54:17.275Z,15.70
2019-05-26T09:56:44.703Z,15.60
2019-05-26T09:59:12.058Z,15.70
2019-05-26T10:01:39.623Z,15.70
2019-05-26T10:04:06.988Z,15.70
2019-05-26T10:06:34.598Z,15.60
2019-05-26T10:09:01.990Z,15.60
2019-05-26T10:11:30.503Z,15.50
2019-05-26T10:13:58.068Z,15.30
2019-05-26T10:16:25.372Z,15.20
2019-05-26T10:18:52.848Z,15.00
2019-05-26T10:21:20.230Z,14.90
2019-05-26T10:23:48.401Z,14.80
2019-05-26T10:26:16.321Z,14.80
2019-05-26T10:28:43.632Z,14.70
2019-05-26T10:31:10.783Z,14.80
2019-05-26T10:33:38.308Z,14.80
2019-05-26T10:36:06.761Z,14.90
2019-05-26T10:38:34.311Z,15.00
2019-05-26T10:41:01.672Z,15.10
2019-05-26T10:43:28.923Z,15.10
2019-05-26T10:45:56.161Z,15.20
2019-05-26T10:48:23.179Z,15.30
2019-05-26T10:50:50.494Z,15.30
2019-05-26T10:53:18.026Z,15.40
2019-05-26T10:55:45.041Z,15.40
2019-05-26T10:58:12.370Z,15.40
2019-05-26T11:00:39.638Z,15.40
2019-05-26T11:03:06.724Z,15.30
2019-05-26T11:05:34.782Z,15.10
2019-05-26T11:08:01.765Z,15.10
2019-05-26T11:10:28.894Z,15.20
2019-05-26T11:12:56.542Z,15.30
2019-05-26T11:15:23.543Z,15.30
2019-05-26T11:17:50.639Z,15.30
2019-05-26T11:20:17.994Z,15.30
2019-05-26T11:22:45.302Z,15.30
2019-05-26T11:25:12.682Z,15.40
2019-05-26T11:27:40.137Z,15.50
2019-05-26T11:30:08.561Z,15.70
2019-05-26T11:32:36.231Z,15.90
2019-05-26T11:35:03.934Z,16.10
2019-05-26T11:37:30.935Z,16.20
2019-05-26T11:39:57.951Z,16.40
2019-05-26T11:42:25.186Z,16.60
2019-05-26T11:44:52.192Z,16.80
2019-05-26T11:47:19.588Z,16.80
2019-05-26T11:49:46.542Z,17.00
2019-05-26T11:52:13.935Z,17.20
2019-05-26T11:54:41.081Z,17.30
2019-05-26T11:57:08.413Z,17.40
2019-05-26T11:59:36.035Z,17.50
2019-05-26T12:02:03.252Z,17.60
2019-05-26T12:04:30.580Z,17.60
2019-05-26T12:06:58.023Z,17.60
2019-05-26T12:09:25.316Z,17.70
2019-05-26T12:11:52.636Z,17.70
2019-05-26T12:14:33.435Z,17.80
2019-05-26T12:16:48.810Z,17.90
2019-05-26T12:19:15.859Z,18.00
2019-05-26T12:21:43.119Z,18.20
2019-05-26T12:24:10.880Z,18.20
2019-05-26T12:26:38.034Z,18.30
2019-05-26T12:29:05.076Z,18.30
2019-05-26T12:31:32.034Z,18.40
2019-05-26T12:33:59.279Z,18.40
2019-05-26T12:36:26.267Z,18.60
2019-05-26T12:38:53.302Z,18.60
2019-05-26T12:41:21.441Z,18.90
2019-05-26T12:43:48.692Z,19.10
2019-05-26T12:46:15.986Z,19.20
2019-05-26T12:48:42.960Z,19.20
2019-05-26T12:51:10.019Z,19.30
2019-05-26T12:53:37.404Z,19.20
2019-05-26T12:56:04.738Z,19.20
2019-05-26T12:58:31.916Z,19.20
2019-05-26T13:00:58.960Z,19.30
2019-05-26T13:03:26.251Z,19.50
2019-05-26T13:05:53.576Z,19.60
2019-05-26T13:08:20.721Z,19.80
2019-05-26T13:10:49.443Z,19.70
2019-05-26T13:13:17.087Z,19.80
2019-05-26T13:15:44.152Z,19.80
2019-05-26T13:18:12.647Z,19.80
2019-05-26T13:20:39.972Z,19.70
2019-05-26T13:23:07.067Z,19.60
2019-05-26T13:25:34.118Z,19.40
2019-05-26T13:28:01.437Z,19.40
2019-05-26T13:30:28.622Z,19.30
2019-05-26T13:32:55.747Z,19.20
2019-05-26T13:35:23.099Z,19.30
2019-05-26T13:37:50.544Z,19.40
2019-05-26T13:40:18.013Z,19.50
2019-05-26T13:42:45.326Z,19.70
2019-05-26T13:45:22.479Z,19.80
2019-05-26T13:47:43.966Z,20.00
2019-05-26T13:50:15.635Z,20.00
2019-05-26T13:52:43.622Z,20.00
2019-05-26T13:55:11.296Z,20.20
2019-05-26T13:57:39.339Z,20.20
2019-05-26T14:00:09.691Z,20.00
2019-05-26T14:02:37.009Z,20.00
2019-05-26T14:05:04.987Z,20.10
2019-05-26T14:07:31.979Z,20.10
2019-05-26T14:10:00.448Z,20.10
2019-05-26T14:12:28.565Z,20.10
2019-05-26T14:14:56.145Z,20.00
2019-05-26T14:17:25.057Z,19.90
2019-05-26T14:19:53.607Z,19.90
2019-05-26T14:22:21.328Z,19.90
2019-05-26T14:24:54.037Z,19.80
2019-05-26T14:27:19.032Z,19.80
2019-05-26T14:29:46.584Z,19.80
2019-05-26T14:32:13.983Z,19.90
2019-05-26T14:34:41.426Z,19.90
2019-05-26T14:37:08.850Z,19.90
2019-05-26T14:39:35.810Z,19.80
2019-05-26T14:42:04.079Z,19.60
2019-05-26T14:44:31.412Z,19.50
2019-05-26T14:46:58.695Z,19.40
2019-05-26T14:49:25.680Z,19.50
2019-05-26T14:51:52.672Z,19.60
2019-05-26T14:54:20.386Z,19.60
2019-05-26T14:56:48.138Z,19.70
2019-05-26T14:59:15.275Z,19.70
2019-05-26T15:01:42.873Z,19.80
2019-05-26T15:04:10.341Z,19.80
2019-05-26T15:06:37.887Z,19.80
2019-05-26T15:09:06.873Z,19.70
2019-05-26T15:11:35.656Z,19.70
2019-05-26T15:14:03.384Z,19.70
2019-05-26T15:16:30.786Z,19.70
2019-05-26T15:18:58.042Z,19.60
2019-05-26T15:21:26.899Z,19.70
2019-05-26T15:23:54.228Z,19.60
2019-05-26T15:26:22.596Z,19.60
2019-05-26T15:28:51.974Z,19.80
2019-05-26T15:31:22.081Z,19.80
2019-05-26T15:33:52.873Z,19.90
2019-05-26T15:36:20.831Z,19.90
2019-05-26T15:38:49.034Z,19.90
2019-05-26T15:41:17.281Z,20.00
2019-05-26T15:43:45.422Z,20.00
2019-05-26T15:46:24.718Z,19.90
2019-05-26T15:48:45.034Z,19.90
2019-05-26T15:51:14.455Z,19.90
2019-05-26T15:53:42.066Z,19.90
2019-05-26T15:56:09.495Z,19.80
2019-05-26T15:58:37.163Z,19.80
2019-05-26T16:01:04.625Z,19.70
2019-05-26T16:03:35.383Z,19.70
2019-05-26T16:06:03.061Z,19.80
2019-05-26T16:08:30.895Z,19.70
2019-05-26T16:10:58.585Z,19.80
2019-05-26T16:13:26.785Z,19.90
2019-05-26T16:15:54.490Z,19.90
2019-05-26T16:18:28.178Z,19.80
2019-05-26T16:21:02.664Z,19.80
2019-05-26T16:23:22.877Z,19.90
2019-05-26T16:25:50.819Z,19.80
2019-05-26T16:28:18.312Z,19.80
2019-05-26T16:30:45.892Z,19.70
2019-05-26T16:33:13.092Z,19.60
2019-05-26T16:35:40.621Z,19.60
2019-05-26T16:38:08.352Z,19.70
2019-05-26T16:40:35.852Z,19.60
2019-05-26T16:43:03.292Z,19.60
2019-05-26T16:45:30.992Z,19.60
2019-05-26T16:47:58.319Z,19.60
2019-05-26T16:50:25.693Z,19.60
2019-05-26T16:52:54.663Z,19.50
2019-05-26T16:55:22.511Z,19.40
2019-05-26T16:57:50.920Z,19.30
2019-05-26T17:00:18.967Z,19.10
2019-05-26T17:02:46.874Z,18.80
2019-05-26T17:05:14.430Z,18.60
2019-05-26T17:07:42.023Z,18.40
2019-05-26T17:10:09.696Z,18.20
2019-05-26T17:12:37.426Z,18.10
2019-05-26T17:15:06.180Z,18.00
2019-05-26T17:17:33.632Z,17.90
2019-05-26T17:20:01.130Z,17.80
2019-05-26T17:22:28.913Z,17.80
2019-05-26T17:24:59.733Z,17.70
2019-05-26T17:27:25.554Z,17.60
2019-05-26T17:29:53.056Z,17.40
2019-05-26T17:32:21.683Z,17.20
2019-05-26T17:34:50.508Z,17.20
2019-05-26T17:37:17.697Z,17.10
2019-05-26T17:39:45.019Z,17.10
2019-05-26T17:42:12.239Z,17.00
2019-05-26T17:47:05.767Z,16.90
2019-05-26T17:49:33.243Z,16.80
2019-05-26T17:52:00.233Z,16.80
2019-05-26T17:54:27.300Z,16.70
2019-05-26T17:56:54.301Z,16.70
2019-05-26T17:59:23.997Z,16.50
2019-05-26T18:01:51.079Z,16.40
2019-05-26T18:04:18.388Z,16.30
2019-05-26T18:06:46.625Z,16.20
2019-05-26T18:09:14.793Z,16.10
2019-05-26T18:11:41.813Z,15.90
2019-05-26T18:14:09.671Z,16.00
2019-05-26T18:16:37.618Z,16.00
2019-05-26T18:19:04.852Z,15.90
2019-05-26T18:21:31.891Z,15.90
2019-05-26T18:23:59.139Z,15.90
2019-05-26T18:26:26.474Z,15.90
2019-05-26T18:28:54.045Z,15.90
2019-05-26T18:31:21.407Z,15.90
2019-05-26T18:33:48.955Z,15.90
2019-05-26T18:36:16.367Z,15.90
2019-05-26T18:38:43.505Z,15.90
2019-05-26T18:41:10.736Z,15.80
2019-05-26T18:43:38.028Z,15.90
2019-05-26T18:46:05.077Z,15.90
2019-05-26T18:48:32.530Z,15.80
2019-05-26T18:50:59.587Z,15.80
2019-05-26T18:53:29.484Z,15.80
2019-05-26T18:55:55.466Z,15.70
2019-05-26T18:58:22.522Z,15.70
2019-05-26T19:00:49.487Z,15.70
2019-05-26T19:03:16.561Z,15.70
2019-05-26T19:05:43.603Z,15.60
2019-05-26T19:08:10.675Z,15.50
2019-05-26T19:10:37.977Z,15.50
2019-05-26T19:13:05.196Z,15.40
2019-05-26T19:15:32.996Z,15.40
2019-05-26T19:18:01.156Z,15.30
2019-05-26T19:20:29.164Z,15.30
2019-05-26T19:22:56.379Z,15.30
2019-05-26T19:25:24.643Z,15.30
2019-05-26T19:27:52.724Z,15.30
2019-05-26T19:30:20.001Z,15.20
2019-05-26T19:32:47.281Z,15.30
2019-05-26T19:35:15.196Z,15.20
2019-05-26T19:37:43.228Z,15.20
2019-05-26T19:40:11.852Z,15.20
2019-05-26T19:42:39.753Z,15.30
2019-05-26T19:45:07.697Z,15.30
2019-05-26T19:47:35.865Z,15.30
2019-05-26T19:50:04.215Z,15.30
2019-05-26T19:52:31.914Z,15.30
2019-05-26T19:54:59.287Z,15.30
2019-05-26T19:57:27.785Z,15.30
2019-05-26T19:59:55.222Z,15.30
2019-05-26T20:02:25.939Z,15.30
2019-05-26T20:04:54.299Z,15.30
2019-05-26T20:07:21.928Z,15.40
2019-05-26T20:10:06.608Z,15.40
2019-05-26T20:12:34.680Z,15.30
2019-05-26T20:15:02.105Z,15.30
2019-05-26T20:17:31.198Z,15.40
2019-05-26T20:19:58.668Z,15.40
2019-05-26T20:22:26.088Z,15.50
2019-05-26T20:24:53.291Z,15.50
2019-05-26T20:27:21.117Z,15.50
2019-05-26T20:29:48.194Z,15.50
2019-05-26T20:32:15.544Z,15.50
2019-05-26T20:34:42.747Z,15.50
2019-05-26T20:37:10.225Z,15.50
2019-05-26T20:39:37.317Z,15.40
2019-05-26T20:42:04.491Z,15.50
2019-05-26T20:44:31.770Z,15.50
2019-05-26T20:46:58.750Z,15.50
2019-05-26T20:49:25.978Z,15.50
2019-05-26T20:51:53.116Z,15.50
2019-05-26T20:54:20.195Z,15.40
2019-05-26T20:56:47.219Z,15.40
2019-05-26T20:59:14.282Z,15.40
2019-05-26T21:01:41.252Z,15.40
2019-05-26T21:04:08.319Z,15.40
2019-05-26T21:06:35.715Z,15.40
2019-05-26T21:09:05.552Z,15.40
2019-05-26T21:11:32.616Z,15.40
2019-05-26T21:14:00.143Z,15.40
2019-05-26T21:16:27.236Z,15.50
2019-05-26T21:18:54.296Z,15.50
2019-05-26T21:21:21.762Z,15.40
2019-05-26T21:23:48.702Z,15.40
2019-05-26T21:26:15.999Z,15.40
2019-05-26T21:28:43.583Z,15.40
2019-05-26T21:31:10.664Z,15.40
2019-05-26T21:33:37.626Z,15.40
2019-05-26T21:36:04.779Z,15.40
2019-05-26T21:38:31.747Z,15.40
2019-05-26T21:40:58.746Z,15.40
2019-05-26T21:43:25.833Z,15.40
2019-05-26T21:45:52.793Z,15.40
2019-05-26T21:48:19.825Z,15.40
2019-05-26T21:50:47.343Z,15.40
2019-05-26T21:53:14.507Z,15.40
2019-05-26T21:55:41.903Z,15.40
2019-05-26T21:58:08.945Z,15.30
2019-05-26T22:00:41.794Z,15.30
2019-05-26T22:03:09.502Z,15.30
2019-05-26T22:05:36.898Z,15.30
2019-05-26T22:08:04.076Z,15.30
2019-05-26T22:10:31.108Z,15.20
2019-05-26T22:12:58.358Z,15.10
2019-05-26T22:15:25.413Z,15.10
2019-05-26T22:17:52.796Z,15.10
2019-05-26T22:20:19.881Z,15.00
2019-05-26T22:22:46.943Z,15.00
2019-05-26T22:25:15.276Z,14.90
2019-05-26T22:27:42.674Z,14.80
2019-05-26T22:30:11.292Z,14.80
2019-05-26T22:32:38.290Z,14.80
2019-05-26T22:35:06.086Z,14.70
2019-05-26T22:37:33.209Z,14.70
2019-05-26T22:40:00.395Z,14.60
2019-05-26T22:42:28.439Z,14.60
2019-05-26T22:44:55.469Z,14.60
2019-05-26T22:47:22.779Z,14.60
2019-05-26T22:49:50.075Z,14.60
2019-05-26T22:52:17.926Z,14.50
2019-05-26T22:54:45.411Z,14.50
2019-05-26T22:57:12.626Z,14.40
2019-05-26T22:59:39.606Z,14.40
2019-05-26T23:02:06.767Z,14.40
2019-05-26T23:04:33.759Z,14.40
2019-05-26T23:07:00.718Z,14.40
2019-05-26T23:09:27.711Z,14.40
2019-05-26T23:11:54.703Z,14.40
2019-05-26T23:14:21.990Z,14.40
2019-05-26T23:16:49.091Z,14.40
2019-05-26T23:19:19.750Z,14.40
2019-05-26T23:21:45.407Z,14.40
2019-05-26T23:24:12.373Z,14.30
2019-05-26T23:26:39.348Z,14.30
2019-05-26T23:29:06.287Z,14.30
2019-05-26T23:31:33.634Z,14.30
2019-05-26T23:34:00.829Z,14.30
2019-05-26T23:36:27.791Z,14.30
2019-05-26T23:38:54.771Z,14.20
2019-05-26T23:41:22.086Z,14.20
2019-05-26T23:43:49.275Z,14.30
2019-05-26T23:46:16.448Z,14.30
2019-05-26T23:48:43.511Z,14.30
2019-05-26T23:51:10.792Z,14.30
2019-05-26T23:53:37.782Z,14.30
2019-05-26T23:56:04.738Z,14.30
2019-05-26T23:58:32.139Z,14.30
